createdAt,value
2022-08-29T00:01:36.341Z,17.54
2022-08-29T00:04:05.152Z,17.54
2022-08-29T00:06:34.601Z,17.55
2022-08-29T00:09:02.582Z,17.58
2022-08-29T00:11:31.804Z,17.60
2022-08-29T00:14:00.184Z,17.64
2022-08-29T00:16:28.229Z,17.66
2022-08-29T00:18:56.237Z,17.70
2022-08-29T00:21:24.381Z,17.73
2022-08-29T00:23:52.382Z,17.76
2022-08-29T00:26:20.396Z,17.77
2022-08-29T00:28:49.798Z,17.77
2022-08-29T00:31:17.807Z,17.76
2022-08-29T00:33:45.830Z,17.73
2022-08-29T00:36:13.769Z,17.71
2022-08-29T00:38:42.225Z,17.68
2022-08-29T00:41:11.415Z,17.66
2022-08-29T00:43:39.432Z,17.64
2022-08-29T00:46:32.643Z,17.62
2022-08-29T00:49:04.897Z,17.59
2022-08-29T00:51:33.549Z,17.55
2022-08-29T00:54:04.397Z,17.51
2022-08-29T00:56:33.458Z,17.47
2022-08-29T00:59:07.696Z,17.44
2022-08-29T01:01:37.660Z,17.43
2022-08-29T01:04:06.017Z,17.44
2022-08-29T01:06:39.026Z,17.43
2022-08-29T01:09:08.242Z,17.43
2022-08-29T01:11:54.166Z,17.43
2022-08-29T01:14:24.291Z,17.43
2022-08-29T01:16:57.710Z,17.45
2022-08-29T01:19:37.899Z,17.44
2022-08-29T01:22:14.772Z,17.43
2022-08-29T01:24:50.677Z,17.40
2022-08-29T01:27:20.845Z,17.38
2022-08-29T01:29:49.161Z,17.35
2022-08-29T01:32:17.553Z,17.33
2022-08-29T01:34:45.954Z,17.30
2022-08-29T01:37:17.387Z,17.27
2022-08-29T01:39:47.489Z,17.27
2022-08-29T01:42:19.013Z,17.25
2022-08-29T01:44:50.480Z,17.23
2022-08-29T01:47:21.130Z,17.22
2022-08-29T01:49:49.381Z,17.21
2022-08-29T01:52:17.761Z,17.22
2022-08-29T01:54:47.871Z,17.22
2022-08-29T01:57:17.322Z,17.26
2022-08-29T01:59:46.066Z,17.28
2022-08-29T02:02:18.052Z,17.28
2022-08-29T02:04:47.363Z,17.29
2022-08-29T02:07:17.579Z,17.29
2022-08-29T02:09:47.837Z,17.29
2022-08-29T02:12:18.694Z,17.28
2022-08-29T02:14:46.641Z,17.26
2022-08-29T02:17:15.007Z,17.24
2022-08-29T02:19:43.577Z,17.22
2022-08-29T02:22:12.106Z,17.21
2022-08-29T02:24:40.176Z,17.17
2022-08-29T02:27:10.431Z,17.14
2022-08-29T02:29:38.695Z,17.11
2022-08-29T02:32:08.203Z,17.07
2022-08-29T02:34:36.392Z,17.04
2022-08-29T02:37:05.143Z,17.00
2022-08-29T02:39:34.259Z,16.99
2022-08-29T02:42:02.304Z,16.96
2022-08-29T02:44:32.334Z,16.94
2022-08-29T02:47:00.367Z,16.93
2022-08-29T02:49:28.375Z,16.92
2022-08-29T02:51:58.553Z,16.92
2022-08-29T02:54:26.591Z,16.92
2022-08-29T02:56:54.558Z,16.93
2022-08-29T02:59:22.494Z,16.93
2022-08-29T03:01:53.734Z,16.93
2022-08-29T03:04:21.742Z,16.92
2022-08-29T03:06:49.681Z,16.91
2022-08-29T03:09:17.658Z,16.89
2022-08-29T03:11:45.692Z,16.87
2022-08-29T03:14:13.895Z,16.84
2022-08-29T03:16:43.927Z,16.83
2022-08-29T03:19:13.297Z,16.79
2022-08-29T03:21:41.396Z,16.73
2022-08-29T03:24:09.322Z,16.69
2022-08-29T03:26:37.266Z,16.66
2022-08-29T03:29:05.403Z,16.62
2022-08-29T03:31:33.385Z,16.59
2022-08-29T03:34:01.352Z,16.58
2022-08-29T03:36:32.461Z,16.54
2022-08-29T03:39:00.408Z,16.50
2022-08-29T03:41:30.647Z,16.44
2022-08-29T03:43:59.661Z,16.41
2022-08-29T03:46:28.494Z,16.39
2022-08-29T03:48:56.703Z,16.36
2022-08-29T03:51:29.231Z,16.34
2022-08-29T03:53:59.061Z,16.31
2022-08-29T03:56:27.503Z,16.29
2022-08-29T03:58:56.012Z,16.27
2022-08-29T04:01:26.911Z,16.25
2022-08-29T04:03:55.967Z,16.23
2022-08-29T04:06:25.208Z,16.20
2022-08-29T04:08:54.087Z,16.17
2022-08-29T04:11:25.795Z,16.13
2022-08-29T04:13:54.508Z,16.10
2022-08-29T04:16:25.173Z,16.08
2022-08-29T04:18:58.377Z,16.06
2022-08-29T04:21:27.416Z,16.02
2022-08-29T04:23:55.491Z,16.01
2022-08-29T04:26:36.992Z,15.98
2022-08-29T04:29:06.259Z,15.96
2022-08-29T04:31:34.560Z,15.95
2022-08-29T04:34:02.772Z,15.93
2022-08-29T04:36:31.220Z,15.92
2022-08-29T04:38:59.137Z,15.89
2022-08-29T04:41:28.520Z,15.88
2022-08-29T04:43:56.402Z,15.87
2022-08-29T04:46:24.926Z,15.85
2022-08-29T04:48:53.711Z,15.84
2022-08-29T04:51:23.231Z,15.83
2022-08-29T04:53:53.248Z,15.80
2022-08-29T04:56:22.789Z,15.78
2022-08-29T04:58:53.065Z,15.78
2022-08-29T05:01:24.304Z,15.76
2022-08-29T05:03:54.325Z,15.75
2022-08-29T05:06:25.031Z,15.72
2022-08-29T05:08:59.238Z,15.72
2022-08-29T05:11:29.717Z,15.70
2022-08-29T05:13:59.482Z,15.67
2022-08-29T05:16:27.869Z,15.66
2022-08-29T05:18:56.340Z,15.63
2022-08-29T05:21:27.266Z,15.62
2022-08-29T05:23:56.452Z,15.62
2022-08-29T05:26:25.409Z,15.60
2022-08-29T05:28:53.429Z,15.58
2022-08-29T05:31:23.602Z,15.57
2022-08-29T05:33:53.457Z,15.55
2022-08-29T05:36:21.505Z,15.54
2022-08-29T05:38:49.470Z,15.52
2022-08-29T05:41:18.498Z,15.55
2022-08-29T05:43:46.639Z,15.53
2022-08-29T05:46:14.728Z,15.54
2022-08-29T05:48:49.816Z,15.53
2022-08-29T05:51:19.385Z,15.53
2022-08-29T05:53:47.717Z,15.54
2022-08-29T05:56:22.889Z,15.54
2022-08-29T05:58:51.027Z,15.55
2022-08-29T06:01:24.233Z,15.54
2022-08-29T06:03:56.187Z,15.55
2022-08-29T06:06:25.789Z,15.55
2022-08-29T06:08:54.405Z,15.55
2022-08-29T06:11:25.418Z,15.57
2022-08-29T06:13:53.564Z,15.58
2022-08-29T06:16:24.129Z,15.60
2022-08-29T06:18:52.853Z,15.60
2022-08-29T06:21:22.534Z,15.62
2022-08-29T06:23:51.548Z,15.62
2022-08-29T06:26:20.148Z,15.63
2022-08-29T06:28:48.946Z,15.66
2022-08-29T06:31:20.646Z,15.70
2022-08-29T06:33:49.140Z,15.74
2022-08-29T06:36:17.381Z,15.77
2022-08-29T06:38:46.891Z,15.80
2022-08-29T06:41:17.779Z,15.85
2022-08-29T06:43:46.859Z,15.87
2022-08-29T06:46:23.728Z,15.92
2022-08-29T06:48:53.474Z,15.98
2022-08-29T06:51:21.657Z,16.05
2022-08-29T06:53:51.179Z,16.10
2022-08-29T06:56:20.481Z,16.17
2022-08-29T06:58:49.089Z,16.25
2022-08-29T07:01:20.253Z,16.31
2022-08-29T07:03:48.523Z,16.37
2022-08-29T07:06:18.275Z,16.44
2022-08-29T07:08:56.057Z,16.50
2022-08-29T07:11:26.745Z,16.55
2022-08-29T07:14:02.079Z,16.60
2022-08-29T07:16:31.333Z,16.66
2022-08-29T07:19:00.018Z,16.74
2022-08-29T07:21:28.909Z,16.82
2022-08-29T07:23:58.432Z,16.91
2022-08-29T07:26:30.489Z,16.98
2022-08-29T07:29:03.337Z,17.06
2022-08-29T07:31:32.361Z,17.16
2022-08-29T07:34:01.944Z,17.23
2022-08-29T07:36:30.588Z,17.32
2022-08-29T07:38:58.544Z,17.38
2022-08-29T07:41:28.653Z,17.46
2022-08-29T07:43:56.712Z,17.54
2022-08-29T07:46:25.650Z,17.60
2022-08-29T07:48:54.396Z,17.66
2022-08-29T07:51:24.710Z,17.73
2022-08-29T07:53:53.107Z,17.80
2022-08-29T07:56:24.514Z,17.88
2022-08-29T07:58:55.691Z,17.96
2022-08-29T08:01:24.776Z,18.06
2022-08-29T08:03:54.086Z,18.14
2022-08-29T08:06:23.727Z,18.22
2022-08-29T08:08:56.495Z,18.30
2022-08-29T08:11:26.333Z,18.36
2022-08-29T08:13:57.563Z,18.46
2022-08-29T08:16:27.564Z,18.54
2022-08-29T08:18:55.937Z,18.62
2022-08-29T08:21:25.019Z,18.70
2022-08-29T08:23:53.424Z,18.77
2022-08-29T08:26:21.581Z,18.85
2022-08-29T08:28:50.012Z,18.94
2022-08-29T08:31:21.442Z,19.01
2022-08-29T08:33:49.477Z,19.10
2022-08-29T08:36:19.809Z,19.15
2022-08-29T08:38:48.927Z,19.23
2022-08-29T08:41:27.327Z,19.31
2022-08-29T08:43:59.279Z,19.38
2022-08-29T08:46:36.383Z,19.45
2022-08-29T08:49:09.096Z,19.52
2022-08-29T08:51:43.320Z,19.59
2022-08-29T08:54:21.499Z,19.67
2022-08-29T08:56:57.753Z,19.73
2022-08-29T08:59:34.734Z,19.79
2022-08-29T09:02:14.830Z,19.84
2022-08-29T09:04:58.117Z,19.87
2022-08-29T09:07:42.955Z,19.94
2022-08-29T09:10:21.529Z,19.99
2022-08-29T09:13:02.573Z,20.05
2022-08-29T09:15:40.022Z,20.10
2022-08-29T09:18:13.867Z,20.14
2022-08-29T09:20:44.055Z,20.22
2022-08-29T09:23:21.490Z,20.28
2022-08-29T09:25:49.923Z,20.32
2022-08-29T09:28:18.148Z,20.36
2022-08-29T09:31:18.094Z,20.42
2022-08-29T09:33:52.306Z,20.45
2022-08-29T09:36:43.395Z,20.53
2022-08-29T09:39:21.504Z,20.58
2022-08-29T09:41:52.909Z,20.63
2022-08-29T09:44:25.662Z,20.70
2022-08-29T09:47:12.520Z,20.78
2022-08-29T09:50:01.297Z,20.83
2022-08-29T09:52:29.352Z,20.88
2022-08-29T09:54:57.611Z,20.94
2022-08-29T09:57:27.985Z,20.98
2022-08-29T10:00:13.723Z,21.06
2022-08-29T10:02:47.704Z,21.11
2022-08-29T10:05:36.882Z,21.17
2022-08-29T10:08:07.004Z,21.23
2022-08-29T10:10:37.903Z,21.27
2022-08-29T10:13:12.041Z,21.31
2022-08-29T10:15:52.545Z,21.39
2022-08-29T10:18:32.967Z,21.45
2022-08-29T10:21:15.921Z,21.48
2022-08-29T10:24:03.616Z,21.52
2022-08-29T10:26:40.674Z,21.55
2022-08-29T10:29:28.516Z,21.61
2022-08-29T10:32:10.994Z,21.68
2022-08-29T10:34:54.075Z,21.71
2022-08-29T10:37:35.041Z,21.77
2022-08-29T10:40:09.972Z,21.81
2022-08-29T10:42:40.682Z,21.85
2022-08-29T10:45:16.907Z,21.90
2022-08-29T10:47:52.669Z,21.92
2022-08-29T10:50:48.177Z,21.95
2022-08-29T10:53:21.431Z,22.00
2022-08-29T10:55:55.684Z,22.07
2022-08-29T10:58:35.681Z,22.17
2022-08-29T11:01:12.208Z,22.27
2022-08-29T11:03:47.652Z,22.36
2022-08-29T11:06:22.690Z,22.40
2022-08-29T11:08:58.231Z,22.48
2022-08-29T11:11:30.035Z,22.56
2022-08-29T11:14:05.589Z,22.62
2022-08-29T11:16:38.952Z,22.68
2022-08-29T11:19:13.192Z,22.72
2022-08-29T11:21:45.792Z,22.82
2022-08-29T11:24:21.032Z,22.89
2022-08-29T11:26:59.479Z,22.99
2022-08-29T11:29:37.119Z,23.08
2022-08-29T11:32:13.273Z,23.19
2022-08-29T11:34:52.779Z,23.35
2022-08-29T11:37:49.198Z,23.45
2022-08-29T11:43:26.098Z,23.62
2022-08-29T11:45:59.515Z,23.75
2022-08-29T11:48:36.068Z,23.88
2022-08-29T11:51:30.462Z,24.09
2022-08-29T11:54:37.136Z,24.31
2022-08-29T11:57:46.225Z,24.50
2022-08-29T12:00:43.736Z,24.54
2022-08-29T12:03:45.646Z,24.51
2022-08-29T12:06:40.189Z,24.45
2022-08-29T12:09:25.392Z,24.66
2022-08-29T12:12:14.671Z,24.79
2022-08-29T12:14:45.217Z,24.72
2022-08-29T12:18:01.318Z,24.69
2022-08-29T12:20:41.408Z,24.84
2022-08-29T12:23:21.236Z,25.09
2022-08-29T12:26:09.360Z,25.16
2022-08-29T12:28:45.834Z,25.22
2022-08-29T12:31:26.290Z,25.36
2022-08-29T12:34:33.957Z,25.74
2022-08-29T12:37:22.003Z,26.10
2022-08-29T12:40:15.240Z,26.31
2022-08-29T12:42:53.873Z,26.42
2022-08-29T12:45:27.156Z,26.59
2022-08-29T12:47:59.814Z,26.68
2022-08-29T12:50:31.745Z,26.83
2022-08-29T12:53:02.264Z,27.08
2022-08-29T12:55:35.501Z,27.31
2022-08-29T12:58:03.516Z,27.23
2022-08-29T13:00:33.738Z,27.19
2022-08-29T13:03:09.489Z,27.23
2022-08-29T13:05:43.374Z,27.35
2022-08-29T13:08:13.976Z,27.47
2022-08-29T13:10:52.417Z,27.53
2022-08-29T13:13:23.125Z,27.50
2022-08-29T13:15:51.399Z,27.62
2022-08-29T13:18:21.442Z,27.83
2022-08-29T13:21:03.269Z,27.99
2022-08-29T13:23:33.444Z,28.09
2022-08-29T13:26:03.589Z,28.23
2022-08-29T13:28:37.904Z,28.32
2022-08-29T13:31:10.377Z,28.40
2022-08-29T13:34:01.647Z,28.53
2022-08-29T13:36:31.541Z,28.61
2022-08-29T13:39:43.604Z,28.70
2022-08-29T13:42:29.257Z,28.75
2022-08-29T13:45:10.528Z,28.82
2022-08-29T13:47:50.684Z,28.88
2022-08-29T13:50:20.470Z,28.85
2022-08-29T13:52:51.922Z,28.90
2022-08-29T13:55:20.739Z,28.99
2022-08-29T13:57:51.477Z,29.00
2022-08-29T14:00:22.754Z,29.06
2022-08-29T14:03:00.189Z,29.14
2022-08-29T14:05:30.217Z,29.22
2022-08-29T14:07:58.527Z,29.19
2022-08-29T14:10:26.498Z,29.19
2022-08-29T14:12:54.487Z,29.27
2022-08-29T14:15:22.485Z,29.42
2022-08-29T14:17:50.803Z,29.48
2022-08-29T14:20:19.797Z,29.55
2022-08-29T14:22:49.383Z,29.58
2022-08-29T14:25:19.422Z,29.71
2022-08-29T14:27:48.504Z,29.91
2022-08-29T14:30:19.489Z,30.03
2022-08-29T14:32:47.773Z,30.05
2022-08-29T14:35:26.658Z,30.03
2022-08-29T14:38:01.609Z,30.07
2022-08-29T14:40:30.357Z,30.06
2022-08-29T14:42:58.767Z,30.03
2022-08-29T14:45:26.840Z,30.01
2022-08-29T14:47:54.856Z,30.01
2022-08-29T14:50:23.063Z,29.98
2022-08-29T14:52:51.195Z,29.90
2022-08-29T14:55:21.356Z,29.84
2022-08-29T14:57:49.351Z,29.84
2022-08-29T15:00:20.706Z,29.82
2022-08-29T15:02:49.060Z,29.87
2022-08-29T15:05:17.766Z,29.87
2022-08-29T15:07:46.311Z,29.87
2022-08-29T15:10:15.961Z,29.78
2022-08-29T15:12:45.327Z,29.78
2022-08-29T15:15:13.648Z,29.84
2022-08-29T15:17:43.664Z,29.85
2022-08-29T15:23:01.067Z,29.94
2022-08-29T15:25:29.120Z,29.98
2022-08-29T15:27:58.587Z,30.11
2022-08-29T15:30:26.849Z,30.21
2022-08-29T15:32:54.919Z,30.37
2022-08-29T15:35:23.144Z,30.53
2022-08-29T15:37:51.651Z,30.59
2022-08-29T15:40:24.593Z,30.71
2022-08-29T15:42:52.686Z,30.92
2022-08-29T15:45:23.448Z,31.13
2022-08-29T15:47:54.141Z,31.30
2022-08-29T15:50:22.746Z,31.46
2022-08-29T15:52:50.867Z,31.56
2022-08-29T15:55:18.997Z,31.57
2022-08-29T15:57:52.418Z,31.52
2022-08-29T16:00:30.138Z,31.47
2022-08-29T16:03:00.639Z,31.35
2022-08-29T16:05:29.196Z,31.32
2022-08-29T16:07:57.533Z,31.25
2022-08-29T16:10:25.763Z,31.15
2022-08-29T16:12:53.773Z,31.15
2022-08-29T16:15:23.453Z,31.06
2022-08-29T16:17:51.565Z,30.90
2022-08-29T16:20:19.668Z,30.81
2022-08-29T16:22:47.618Z,30.78
2022-08-29T16:25:15.855Z,30.81
2022-08-29T16:27:44.306Z,30.81
2022-08-29T16:30:12.845Z,30.63
2022-08-29T16:32:42.486Z,30.70
2022-08-29T16:35:11.177Z,30.86
2022-08-29T16:38:02.081Z,30.90
2022-08-29T16:40:32.308Z,30.75
2022-08-29T16:43:00.440Z,30.74
2022-08-29T16:45:28.554Z,30.68
2022-08-29T16:47:57.974Z,30.63
2022-08-29T16:50:27.593Z,30.61
2022-08-29T16:52:57.201Z,30.61
2022-08-29T16:55:25.478Z,30.66
2022-08-29T16:58:11.213Z,30.64
2022-08-29T17:00:40.225Z,30.60
2022-08-29T17:03:09.872Z,30.71
2022-08-29T17:05:38.346Z,30.74
2022-08-29T17:08:05.209Z,30.81
2022-08-29T17:10:32.128Z,30.81
2022-08-29T17:12:58.944Z,30.76
2022-08-29T17:15:25.803Z,30.72
2022-08-29T17:17:53.776Z,30.67
2022-08-29T17:20:23.504Z,30.62
2022-08-29T17:22:51.586Z,30.58
2022-08-29T17:25:20.224Z,30.49
2022-08-29T17:28:14.165Z,30.46
2022-08-29T17:30:37.448Z,30.46
2022-08-29T17:33:05.618Z,30.47
2022-08-29T17:35:34.974Z,30.48
2022-08-29T17:38:02.880Z,30.55
2022-08-29T17:40:31.013Z,30.52
2022-08-29T17:43:00.557Z,30.51
2022-08-29T17:45:28.929Z,30.58
2022-08-29T17:47:57.071Z,30.64
2022-08-29T17:50:25.102Z,30.58
2022-08-29T17:52:54.563Z,30.46
2022-08-29T17:55:22.577Z,30.17
2022-08-29T17:57:57.244Z,29.50
2022-08-29T18:00:25.667Z,28.68
2022-08-29T18:02:54.146Z,27.94
2022-08-29T18:05:22.379Z,27.32
2022-08-29T18:07:51.474Z,26.77
2022-08-29T18:10:22.213Z,26.33
2022-08-29T18:12:50.737Z,25.97
2022-08-29T18:15:19.131Z,25.64
2022-08-29T18:17:47.355Z,25.38
2022-08-29T18:20:19.445Z,25.19
2022-08-29T18:22:48.546Z,24.99
2022-08-29T18:25:22.737Z,24.80
2022-08-29T18:27:52.216Z,24.63
2022-08-29T18:30:20.694Z,24.50
2022-08-29T18:32:48.882Z,24.37
2022-08-29T18:35:17.236Z,24.23
2022-08-29T18:37:45.248Z,24.09
2022-08-29T18:40:13.525Z,23.98
2022-08-29T18:42:41.741Z,23.86
2022-08-29T18:45:12.399Z,23.74
2022-08-29T18:47:40.450Z,23.66
2022-08-29T18:50:26.882Z,23.55
2022-08-29T18:52:55.142Z,23.45
2022-08-29T18:55:24.034Z,23.35
2022-08-29T18:57:54.048Z,23.25
2022-08-29T19:00:25.182Z,23.14
2022-08-29T19:02:53.441Z,23.06
2022-08-29T19:05:22.491Z,22.98
2022-08-29T19:07:50.482Z,22.89
2022-08-29T19:10:19.728Z,22.82
2022-08-29T19:12:49.062Z,22.71
2022-08-29T19:15:18.627Z,22.64
2022-08-29T19:17:48.073Z,22.58
2022-08-29T19:20:36.686Z,22.50
2022-08-29T19:23:04.933Z,22.41
2022-08-29T19:25:32.876Z,22.32
2022-08-29T19:28:01.632Z,22.24
2022-08-29T19:30:30.252Z,22.17
2022-08-29T19:32:59.640Z,22.11
2022-08-29T19:35:28.191Z,22.06
2022-08-29T19:37:56.703Z,22.01
2022-08-29T19:40:24.729Z,21.95
2022-08-29T19:42:55.857Z,21.89
2022-08-29T19:45:25.168Z,21.84
2022-08-29T19:47:53.239Z,21.81
2022-08-29T19:50:24.863Z,21.75
2022-08-29T19:52:54.771Z,21.72
2022-08-29T19:55:24.965Z,21.67
2022-08-29T19:57:53.024Z,21.64
2022-08-29T20:00:23.870Z,21.60
2022-08-29T20:02:53.419Z,21.57
2022-08-29T20:05:24.171Z,21.52
2022-08-29T20:07:52.248Z,21.49
2022-08-29T20:10:25.025Z,21.44
2022-08-29T20:12:54.117Z,21.40
2022-08-29T20:15:28.971Z,21.35
2022-08-29T20:17:59.839Z,21.33
2022-08-29T20:20:36.134Z,21.29
2022-08-29T20:23:04.846Z,21.25
2022-08-29T20:25:33.621Z,21.23
2022-08-29T20:28:01.895Z,21.20
2022-08-29T20:30:32.193Z,21.17
2022-08-29T20:33:00.436Z,21.14
2022-08-29T20:35:46.557Z,21.12
2022-08-29T20:38:16.412Z,21.08
2022-08-29T20:40:46.865Z,21.02
2022-08-29T20:43:15.174Z,20.98
2022-08-29T20:45:43.302Z,20.93
2022-08-29T20:48:12.207Z,20.90
2022-08-29T20:50:40.740Z,20.86
2022-08-29T20:53:14.882Z,20.81
2022-08-29T20:55:59.101Z,20.77
2022-08-29T20:58:29.020Z,20.74
2022-08-29T21:00:57.578Z,20.71
2022-08-29T21:03:43.197Z,20.66
2022-08-29T21:06:11.242Z,20.63
2022-08-29T21:08:41.091Z,20.62
2022-08-29T21:11:14.462Z,20.58
2022-08-29T21:13:43.356Z,20.56
2022-08-29T21:16:11.979Z,20.52
2022-08-29T21:18:40.336Z,20.50
2022-08-29T21:21:09.042Z,20.47
2022-08-29T21:23:37.322Z,20.45
2022-08-29T21:26:05.293Z,20.44
2022-08-29T21:28:34.876Z,20.42
2022-08-29T21:31:07.786Z,20.39
2022-08-29T21:33:37.268Z,20.36
2022-08-29T21:36:08.379Z,20.35
2022-08-29T21:38:36.556Z,20.31
2022-08-29T21:41:04.612Z,20.30
2022-08-29T21:43:32.587Z,20.27
2022-08-29T21:46:01.925Z,20.23
2022-08-29T21:48:29.867Z,20.21
2022-08-29T21:50:57.887Z,20.19
2022-08-29T21:53:25.793Z,20.17
2022-08-29T21:55:54.155Z,20.14
2022-08-29T21:58:22.244Z,20.15
2022-08-29T22:00:51.366Z,20.10
2022-08-29T22:03:20.769Z,20.08
2022-08-29T22:05:48.923Z,20.05
2022-08-29T22:08:16.968Z,20.02
2022-08-29T22:10:44.967Z,19.99
2022-08-29T22:13:13.001Z,19.98
2022-08-29T22:15:58.998Z,19.96
2022-08-29T22:18:29.008Z,19.95
2022-08-29T22:21:00.471Z,19.92
2022-08-29T22:23:29.634Z,19.89
2022-08-29T22:25:58.899Z,19.88
2022-08-29T22:28:27.231Z,19.86
2022-08-29T22:30:55.260Z,19.85
2022-08-29T22:33:23.276Z,19.82
2022-08-29T22:35:52.910Z,19.81
2022-08-29T22:38:20.846Z,19.79
2022-08-29T22:40:49.445Z,19.77
2022-08-29T22:43:17.627Z,19.76
2022-08-29T22:45:45.849Z,19.73
2022-08-29T22:48:16.356Z,19.70
2022-08-29T22:50:53.971Z,19.67
2022-08-29T22:53:28.272Z,19.66
2022-08-29T22:55:56.384Z,19.64
2022-08-29T22:58:24.297Z,19.61
2022-08-29T23:00:52.249Z,19.58
2022-08-29T23:03:20.441Z,19.57
2022-08-29T23:05:48.537Z,19.56
2022-08-29T23:08:17.811Z,19.53
2022-08-29T23:10:49.010Z,19.50
2022-08-29T23:13:17.879Z,19.48
2022-08-29T23:15:46.017Z,19.45
2022-08-29T23:18:13.969Z,19.44
2022-08-29T23:20:42.016Z,19.40
2022-08-29T23:23:13.656Z,19.37
2022-08-29T23:25:41.702Z,19.34
2022-08-29T23:28:11.041Z,19.30
2022-08-29T23:30:39.217Z,19.27
2022-08-29T23:33:07.207Z,19.22
2022-08-29T23:35:37.041Z,19.21
2022-08-29T23:38:07.770Z,19.17
2022-08-29T23:40:36.228Z,19.15
2022-08-29T23:43:04.779Z,19.13
2022-08-29T23:45:34.086Z,19.11
2022-08-29T23:48:02.040Z,19.08
2022-08-29T23:50:29.998Z,19.06
2022-08-29T23:52:57.967Z,19.05
2022-08-29T23:55:25.924Z,19.02
2022-08-29T23:57:54.323Z,18.99
